METAR Data
IDs: Format: Raw Decoded Include TAF

Data at: 0822 UTC 20 Sep 2018

KEYF 200345Z AUTO 00000KT 10SM CLR 22/20 A3003 RMK AO2 T02230202
KEYF 200245Z AUTO 00000KT 10SM CLR 23/21 A3002 RMK AO2 T02320207
KEYF 200145Z AUTO 00000KT 10SM CLR 24/21 A3001 RMK AO2 T02360208
KEYF 200125Z AUTO 00000KT 10SM CLR 24/21 A3000 RMK AO2 T02410209
KEYF 200045Z AUTO 00000KT 10SM CLR 25/21 A2998 RMK AO2 T02470214
KEYF 200025Z AUTO 00000KT 10SM CLR 25/21 A2997 RMK AO2 T02480206
KEYF 200005Z AUTO 00000KT 10SM CLR 26/21 A2997 RMK AO2 T02580206
KEYF 192345Z AUTO 00000KT 10SM CLR 26/21 A2997 RMK AO2 T02630211 10321 20262 403210219
KEYF 192325Z AUTO 00000KT 10SM CLR 27/21 A2996 RMK AO2 T02720207
KEYF 192305Z AUTO 00000KT 10SM CLR 28/20 A2996 RMK AO2 T02840204
KEYF 192245Z AUTO 00000KT 10SM CLR 29/19 A2995 RMK AO2 T02910193
KEYF 192225Z AUTO 02003KT 10SM CLR 30/19 A2995 RMK AO2 T02990188
KEYF 192205Z AUTO 35004KT 10SM CLR 30/18 A2995 RMK AO2 T03050184
KEYF 192105Z AUTO 03005KT 10SM SCT060 31/18 A2993 RMK AO2 T03140180
KEYF 192005Z AUTO 01004KT 10SM CLR 32/17 A2993 RMK AO2 T03160173
KEYF 191925Z AUTO 34007KT 310V010 10SM CLR 32/18 A2994 RMK AO2 T03160179
KEYF 191905Z AUTO 34006KT 10SM CLR 31/18 A2994 RMK AO2 T03150179
KEYF 191825Z AUTO 33005KT 10SM SCT050 31/18 A2995 RMK AO2 T03130183
KEYF 191805Z AUTO 30006KT 10SM CLR 31/18 A2995 RMK AO2 T03120180
KEYF 191745Z AUTO 28008KT 10SM CLR 31/18 A2995 RMK AO2 T03110181 10311 20226
KEYF 191725Z AUTO 32006KT 10SM CLR 31/18 A2996 RMK AO2 T03060181
KEYF 191705Z AUTO 25004KT 10SM SCT046 30/18 A2996 RMK AO2 T03020184
KEYF 191625Z AUTO 00000KT 10SM CLR 30/19 A2997 RMK AO2 T02960186
KEYF 191605Z AUTO 36004KT 10SM CLR 30/19 A2998 RMK AO2 T02960191
KEYF 191545Z AUTO 33005KT 10SM CLR 29/19 A2998 RMK AO2 T02900192
KEYF 191525Z AUTO 05003KT 10SM CLR 29/19 A2998 RMK AO2 T02890193
KEYF 191445Z AUTO 34005KT 10SM CLR 28/19 A2998 RMK AO2 T02810194